Fairview Valley, Nevada Weather observations

Data are for observation ending at time listed.
 Day   Time    Ave.   Ave.  Ave.  Vector   Max.   Stn.    Total    Solar   Ave.   Ave.    #1       #2
  of    of     Air    Rel.  Wind   Wind    Wind   Baro.  Precip.   Rad.    Soil   Vis.   Cloud   Cloud
Year   Day     Temp.  Hum.  Speed  Dir.    Gust   Pres.                    Temp.          Ceil    Ceil
2015   (PST)    F      %     mph   deg.    mph     mb.     in.     W/m2     F     (km)   k ft.   k ft.
------------------------------------------------------------------------------------------------------
 149    2:50  999.0   999  999.0   999    999.0    999    999.00     999   999.0   999.0  999.0  999.0
 149    3:00  999.0   999  999.0   999    999.0    999    999.00     999   999.0   999.0  999.0  999.0
 149    3:10  999.0   999  999.0   999    999.0    999    999.00     999   999.0   999.0  999.0  999.0
 149    3:20  999.0   999  999.0   999    999.0    999    999.00     999   999.0   999.0  999.0  999.0
 149    3:30  999.0   999  999.0   999    999.0    999    999.00     999   999.0   999.0  999.0  999.0
 149    3:40  999.0   999  999.0   999    999.0    999    999.00     999   999.0   999.0  999.0  999.0
 149    3:50   53.4    69    3.3   133      4.3    872     0.00       0    69.3   999.0    5.1  999.0
 149    4:00   53.8    64    2.2   133      2.9    872     0.00       0    69.2   999.0    1.7  999.0
 149    4:10   54.0    63    3.1   132      3.8    872     0.00       0    69.0   999.0    0.0  999.0
 149    4:20   53.9    60    3.3   127      4.4    872     0.00       0    68.9   999.0    0.0  999.0
 149    4:30   53.0    61    5.5   131      6.1    872     0.04       2    74.0   250.0    0.0  999.0
 149    4:40  999.0   999  999.0   999    999.0    999    999.00     999   999.0   999.0  999.0  999.0
 149    4:50   54.4    56    0.1   156      1.3    873     0.00      12    68.4   999.0    0.0  999.0
 149    5:00   56.0    53    1.2   101      3.9    873     0.00      36    68.3   999.0    0.0  999.0
 149    5:10   58.0    49    2.1    93      3.0    873     0.00      61    68.1   999.0    0.0  999.0
 149    5:20   58.8    49    2.3    88      4.7    873     0.00      89    67.9   999.0    0.0  999.0
 149    5:30   59.4    47    3.4    82      5.6    873     0.00     121    67.8   999.0    0.0  999.0
 149    5:40   59.8    47    3.1    91      5.0    873     0.00     149    67.6   999.0    0.0  999.0
 149    5:50   61.2    45    1.4   140      4.5    873     0.00     177    67.5   999.0    0.0  999.0
 149    6:00   62.9    43    1.7    85      3.8    873     0.00     207    67.4   999.0    0.0  999.0
 149    6:10   63.5    42    0.6   119      2.8    873     0.00     237    67.3   999.0    0.0  999.0
 149    6:20   65.3    38    0.1   119      0.9    873     0.00     268    67.1   999.0    0.0  999.0
 149    6:30   65.8    37    0.0     0      0.0    873     0.00     300    67.0   999.0    0.0  999.0
 149    6:40   66.5    37    0.3   118      1.4    873     0.00     332    66.9   999.0    0.0  999.0
 149    6:50   66.3    37    1.6   114      3.7    873     0.00     364    66.8   999.0    0.0  999.0
 149    7:00   67.3    35    2.6    50      7.5    873     0.00     395    66.7   999.0    0.0  999.0
 149    7:10   67.7    33    5.4    49     10.3    873     0.00     426    66.7   999.0    0.0  999.0
 149    7:20   68.3    33    5.7    45      8.9    873     0.00     458    66.7   999.0    0.0  999.0
 149    7:30   68.8    33    7.5    47     10.2    873     0.00     489    66.7   999.0    0.0  999.0
 149    7:40   69.4    32    9.7    36     14.3    873     0.00     517    66.7   999.0    0.0  999.0
 149    7:50   70.8    30   10.6    25     16.1    873     0.00     549    66.6   999.0    0.0  999.0
 149    8:00   71.0    30   12.3    37     17.2    873     0.00     578    66.6   999.0    0.0  999.0
 149    8:10   71.5    29   13.9    34     18.9    873     0.00     607    66.6   999.0    0.0  999.0
 149    8:20   72.1    29   13.7    32     19.1    873     0.00     636    66.6   999.0    0.0  999.0
 149    8:30   72.4    28   13.4    32     17.6    873     0.00     664    66.6   999.0    0.0  999.0
 149    8:40   73.1    28   12.6    27     16.8    873     0.00     692    66.7   999.0    0.0  999.0
 149    8:50   73.6    27   14.2    22     17.8    873     0.00     718    66.7   999.0    0.0  999.0
 149    9:00   74.2    26   13.9    23     18.9    873     0.00     737    66.8   999.0    0.0  999.0
 149    9:10   74.5    26   13.2    23     17.5    873     0.00     764    66.8   999.0    0.0  999.0
 149    9:20   74.7    26   13.1    24     17.9    873     0.00     790    66.9   999.0    0.0  999.0
 149    9:30   75.6    25   10.6    33     15.3    873     0.00     810    66.9   999.0    0.0  999.0
 149    9:40   76.1    24   10.2    20     15.8    873     0.00     832    67.0   999.0    0.0  999.0
 149    9:50   76.8    23   10.1    26     15.3    873     0.00     853    67.2   999.0    0.0  999.0
 149   10:00   77.4    23    8.5    18     13.3    873     0.00     859    67.2   999.0    0.0  999.0
 149   10:10   78.3    22    7.2    48     12.1    872     0.00     884    67.4   999.0    0.0  999.0
 149   10:20   78.2    21    6.7    39     11.5    872     0.00     895    67.5   999.0    0.0  999.0
 149   10:30   79.0    20    4.7    18      9.6    872     0.00     923    67.7   999.0    0.0  999.0
 149   10:40   79.8    19    7.2    18     12.4    872     0.00     931    67.9   999.0    0.0  999.0
 149   10:50   81.0    18    5.9    33     10.7    872     0.00     945    68.1   999.0    0.0  999.0
 149   11:00   81.1    18    7.7    18     11.5    872     0.00     955    68.3   999.0    0.0  999.0
 149   11:10   81.2    16    4.5    13     11.5    872     0.00     932    68.5   999.0    0.0  999.0
 149   11:20   82.2    16    6.6    40     10.4    872     0.00     932    68.7   999.0    0.0  999.0
 149   11:30   82.3    15    5.2    39     14.4    872     0.00     953    69.1   999.0    0.0  999.0
 149   11:40   82.3    16    7.5    43     12.8    872     0.00     986    69.4   999.0    0.0  999.0
 149   11:50   83.1    15    5.5    18      9.6    871     0.00     979    69.7   999.0    0.0  999.0
 149   12:00   83.6    15    6.0     8     11.8    871     0.00     974    70.1   999.0    0.0  999.0
 149   12:10   83.6    14    3.3   242      7.8    871     0.00     998    70.4   999.0    0.0  999.0
 149   12:20   84.5    14    3.7   329      8.0    871     0.00     906    70.8   999.0    0.0  999.0
 149   12:30   83.9    14    2.9   288      9.1    871     0.00     641    71.2   999.0    0.0  999.0
 149   12:40   85.0    14    2.9   342      6.5    871     0.00     787    71.5   999.0    0.0  999.0
 149   12:50   85.0    13    2.9   284      6.4    871     0.00     804    72.1   999.0    0.0  999.0
 149   13:00   85.4    13    2.1   245      6.3    871     0.00     876    72.4   999.0    0.0  999.0
 149   13:10   86.5    13    1.5    43      5.6    871     0.00     870    72.8   999.0    0.0  999.0
 149   13:20   87.3    13    3.0   337      6.6    870     0.00     930    73.2   999.0    0.0  999.0
 149   13:30   85.6    13    5.0   359      9.9    870     0.00     740    73.7   999.0    0.0  999.0
 149   13:40   85.6    13    5.4   340      9.3    870     0.00     774    74.0   999.0    0.0  999.0
 149   13:50   85.4    13    4.6     4      9.3    870     0.00     661    74.4   999.0    0.0  999.0
 149   14:00   85.5    13    5.4    26      9.9    870     0.00     879    74.8   999.0    0.0  999.0
 149   14:10   86.9    13    4.8    74      8.7    870     0.00     830    75.2   999.0    0.0  999.0
 149   14:20   86.4    13    3.2    89      6.4    870     0.00     660    75.6   999.0    0.0  999.0
 149   14:30   86.6    13    3.5    58      7.7    870     0.00     828    75.9   999.0    0.0  999.0
 149   14:40   86.9    13    5.5   318      9.9    870     0.00     781    76.3   999.0    0.0  999.0
 149   14:50   85.9    13    4.8   301      8.4    869     0.00     622    76.7   999.0    0.0  999.0
 149   15:00   86.0    13    2.8   352      5.8    869     0.00     478    77.1   999.0    0.0  999.0
 149   15:10   85.0    13    4.6    26     10.2    869     0.00     370    77.4   999.0    0.0  999.0
 149   15:20   85.6    13    3.1    44      9.6    869     0.00     434    77.7   999.0    0.0  999.0
 149   15:30   86.8    12    5.2    86      9.9    869     0.00     729    78.0   999.0    0.0  999.0
 149   15:40   86.9    12    7.3    71     11.0    869     0.00     612    78.4   999.0    0.0  999.0
 149   15:50   87.1    12    7.1    31      9.6    869     0.00     590    78.7   999.0    0.0  999.0
 149   16:00   87.1    12    6.2    43     11.0    869     0.00     539    78.9   999.0    0.0  999.0
 149   16:10   87.2    12    5.7    68     10.9    869     0.00     560    79.1   999.0    0.0  999.0
 149   16:20   87.8    11    3.3    52      6.6    869     0.00     524    79.4   999.0    0.0  999.0
 149   16:30   87.1    11    4.2    84      7.5    869     0.00     413    79.6   999.0    0.0  999.0
 149   16:40   87.0    11    3.7    87      9.6    869     0.00     388    79.8   999.0    0.0  999.0
 149   16:50   86.9    11    6.2    48     11.2    869     0.00     384    80.0   999.0    0.0  999.0
 149   17:00   86.9    11    5.5    14     13.4    869     0.00     322    80.2   999.0    0.0  999.0
 149   17:10   86.0    12    5.8   354      8.8    869     0.00     191    80.4   999.0    0.0  999.0
 149   17:20   85.4    12    4.1   352      5.4    869     0.00     148    80.6   999.0    0.0  999.0
 149   17:30   85.2    12    3.6   353      4.9    868     0.00     159    80.7   999.0    0.0  999.0
 149   17:40   85.4    12    4.2     5      6.1    868     0.00     180    80.9   999.0    0.0  999.0
 149   17:50   85.3    12    4.2   345      5.6    868     0.00     143    80.9   999.0    0.0  999.0
 149   18:00   84.5    14    3.9    28      5.3    868     0.00     100    81.0   999.0    0.0  999.0
 149   18:10   83.6    15    5.4    33      7.0    869     0.00      78    81.0   999.0    0.0  999.0
 149   18:20   82.3    18    5.6    33      6.6    869     0.00      66    81.0   999.0    0.0  999.0
 149   18:30   81.6    17    6.1    38      6.8    869     0.00      46    81.0   999.0    0.0  999.0
 149   18:40   81.2    19    6.9    30      7.8    869     0.00      37    80.9   999.0    0.0  999.0
 149   18:50   79.5    23    7.5    12      9.1    869     0.00      24    80.9   999.0    0.0  999.0
 149   19:00   78.7    22    8.3     7     10.3    869     0.00      13    80.8   999.0    0.0  999.0
 149   19:10   78.0    20    9.4    12     10.9    869     0.00       5    80.6   999.0    0.0  999.0
 149   19:20   77.2    21    9.8    11     11.5    869     0.00       1    80.4   999.0    0.0  999.0
 149   19:30   75.9    23    7.2    24      9.1    869     0.00       0    80.3   999.0    0.0  999.0
 149   19:40   74.8    24    8.9    34     10.4    869     0.00       0    80.2   999.0    0.0  999.0
 149   19:50   74.9    24    8.7    29      9.4    869     0.00       0    80.0   999.0    0.0  999.0
 149   20:00   74.1    25    8.6    15     11.1    869     0.00       0    79.8   999.0    0.0  999.0
 149   20:10   72.6    29    7.5    12     10.0    869     0.00       0    79.6   999.0    0.0  999.0
 149   20:20   70.3    32    6.9    39      9.9    869     0.00       0    79.4   999.0    0.0  999.0
 149   20:30   70.1    31    8.9    41     10.4    869     0.00       0    79.2   999.0    0.0  999.0
 149   20:40   70.4    30    9.2    40     10.6    869     0.00       0    79.1   999.0    2.7  999.0
 149   20:50   70.7    29    9.1    63     12.0    870     0.00       0    78.9   999.0    6.2  999.0
 149   21:00   73.3    24    9.8    59     13.5    870     0.00       0    78.6   999.0    2.9  999.0
 149   21:10   73.0    25    9.3    51     10.6    870     0.00       0    78.4   999.0    0.0  999.0
 149   21:20   71.1    28    8.2    61      9.3    870     0.00       0    78.2   999.0    9.7  999.0
 149   21:30   71.7    26    8.3    58      9.9    870     0.00       0    78.0   999.0    0.7  999.0
 149   21:40   71.5    27    8.3    71      9.6    870     0.00       0    77.9   999.0    0.0  999.0
 149   21:50   69.9    29    8.1    84      9.1    870     0.00       0    77.7   999.0    0.0  999.0
 149   22:00   69.9    29    6.2    76      8.3    870     0.00       0    77.5   999.0    0.0  999.0
 149   22:10   67.9    33    5.3   286      7.3    870     0.00       0    77.3   999.0    0.0  999.0
 149   22:20   69.4    30    6.5   313      7.9    870     0.00       0    77.1   999.0    0.0  999.0
 149   22:30   68.6    31    3.9     0      6.1    870     0.00       0    76.9   999.0    1.8  999.0
 149   22:40   68.7    30    4.7    67      5.6    870     0.00       0    76.7   999.0    0.0  999.0
 149   22:50   68.1    31    6.1    82      7.1    870     0.00       0    76.5   999.0    0.0  999.0
 149   23:00   67.9    31    3.6    41      6.1    870     0.00       0    76.4   999.0    0.0  999.0
 149   23:10   67.6    32    1.7   274      4.4    870     0.00       0    76.2   999.0    0.0  999.0
 149   23:20   66.8    34    3.8   248      6.2    870     0.00       0    76.0   999.0    0.0  999.0
 149   23:30   67.5    32    3.2   271      7.2    870     0.00       0    75.8   999.0    0.0  999.0
 149   23:40   66.3    35    4.1   280      5.4    870     0.00       0    75.6   999.0    0.0  999.0
 149   23:50   66.8    34    4.4   259      5.5    870     0.00       0    75.5   999.0    0.0  999.0
 150    0:00   65.1    38    2.9   290      4.0    870     0.00       0    75.3   999.0    0.0  999.0
 150    0:10   65.1    38    2.7   252      4.4    870     0.00       0    75.1   999.0    0.0  999.0
 150    0:20   65.8    36    2.8   247      4.7    870     0.00       0    74.9   999.0    0.0  999.0
 150    0:30   63.0    43    0.1   240      0.8    870     0.00       0    74.7   999.0    0.0  999.0
 150    0:40   62.9    42    3.2   191      4.6    870     0.00       0    74.6   999.0    0.0  999.0
 150    0:50   62.4    44    3.5   158      4.1    870     0.00       0    74.4   999.0    0.0  999.0
 150    1:00   62.3    44    3.2   175      4.7    870     0.00       0    74.2   999.0    0.0  999.0
 150    1:10   62.4    45    2.3   241      5.7    870     0.00       0    74.0   999.0    0.0  999.0
 150    1:20   60.4    50    0.9   281      3.4    870     0.00       0    73.8   999.0    0.0  999.0
 150    1:30   62.1    45    3.5   211      4.5    870     0.00       0    73.7   999.0    0.0  999.0
 150    1:40   61.0    47    4.5   186      5.0    870     0.00       0    73.5   999.0    0.0  999.0
 150    1:50   61.7    46    1.6   202      4.6    870     0.00       0    73.4   999.0    0.0  999.0
 150    2:00   59.1    53    0.9   151      2.2    870     0.00       0    73.2   999.0    0.0  999.0
 150    2:10   60.2    47    1.7   140      2.7    870     0.00       0    73.0   999.0    0.0  999.0
 150    2:20   61.4    46    1.8   219      3.9    870     0.00       0    72.9   999.0    6.0  999.0
 150    2:30   59.3    51    2.1   282      3.9    870     0.00       0    72.7   999.0    5.6  999.0
 150    2:40   57.7    59    0.3   231      1.5    870     0.00       0    72.6   999.0    8.2  999.0

Return to Fairview Valley graphs page.


Western Regional Climate Center,wrcc@dri.edu